Time;durP1;ratioP1;P1;durP2;ratioP2;P2;SDS_P1;SDS_P2;PMS_P1;PMS_P2;Temp;Humidity;BMP_temperature;BMP_pressure;BME280_temperature;BME280_humidity;BME280_pressure;Samples;Min_cycle;Max_cycle;Signal;HPM_P1;HPM_P2
2022/08/09 00:00:39;;;;;;;6.93;2.30;;;;;;;17.76;75.52;102749.13;4954490;29;20030;-74
2022/08/09 00:03:04;;;;;;;6.03;2.38;;;;;;;17.73;75.64;102751.41;4953473;29;20046;-74
2022/08/09 00:05:29;;;;;;;6.05;2.55;;;;;;;17.74;75.58;102745.75;4952543;28;20019;-73
2022/08/09 00:07:55;;;;;;;12.38;2.60;;;;;;;17.73;75.92;102748.66;4952904;29;20023;-74
2022/08/09 00:10:20;;;;;;;5.45;2.33;;;;;;;17.69;76.22;102741.88;4952851;29;20027;-73
2022/08/09 00:12:46;;;;;;;5.88;2.47;;;;;;;17.64;76.59;102745.19;4936034;29;20086;-73
2022/08/09 00:15:11;;;;;;;5.85;2.22;;;;;;;17.63;76.59;102751.63;4953664;29;20039;-74
2022/08/09 00:17:36;;;;;;;5.65;2.33;;;;;;;17.61;76.86;102740.06;4953436;29;20046;-74
2022/08/09 00:20:02;;;;;;;8.52;2.95;;;;;;;17.58;76.90;102745.88;4951883;29;20027;-75
2022/08/09 00:22:28;;;;;;;3.60;2.10;;;;;;;17.59;76.99;102746.72;4952308;29;20039;-74
2022/08/09 00:24:54;;;;;;;6.20;2.70;;;;;;;17.56;77.08;102745.22;4952876;29;20438;-74
2022/08/09 00:27:19;;;;;;;6.30;2.58;;;;;;;17.51;77.21;102745.78;4953556;29;20039;-74
2022/08/09 00:29:45;;;;;;;6.03;2.65;;;;;;;17.46;77.60;102741.91;4949016;28;20028;-75
2022/08/09 00:32:10;;;;;;;5.13;2.28;;;;;;;17.49;77.60;102747.84;4946047;29;20027;-74
2022/08/09 00:34:35;;;;;;;8.32;2.88;;;;;;;17.43;77.81;102748.56;4945813;28;20102;-73
2022/08/09 00:37:01;;;;;;;8.40;2.70;;;;;;;17.40;78.15;102745.34;4953801;28;20031;-74
2022/08/09 00:39:26;;;;;;;4.70;2.38;;;;;;;17.39;78.32;102746.38;4924629;29;20078;-74
2022/08/09 00:41:51;;;;;;;8.77;2.70;;;;;;;17.35;78.38;102751.31;4946881;29;20582;-74
2022/08/09 00:44:17;;;;;;;12.05;2.70;;;;;;;17.39;78.38;102749.09;4954684;29;20042;-74
2022/08/09 00:46:42;;;;;;;4.65;2.40;;;;;;;17.33;78.43;102751.50;4953863;29;20139;-74
2022/08/09 00:49:09;;;;;;;4.30;2.40;;;;;;;17.27;78.86;102746.81;4952613;29;20070;-74
2022/08/09 00:51:34;;;;;;;4.78;3.00;;;;;;;17.29;79.00;102747.44;4936320;29;20057;-74
2022/08/09 00:53:59;;;;;;;6.63;2.60;;;;;;;17.25;79.08;102748.84;4951047;29;20474;-74
2022/08/09 00:56:25;;;;;;;8.20;2.70;;;;;;;17.23;79.16;102745.47;4923888;29;20034;-74
2022/08/09 00:58:50;;;;;;;7.80;2.50;;;;;;;17.22;79.55;102751.06;4951118;29;20202;-74
2022/08/09 01:01:23;;;;;;;8.75;2.72;;;;;;;17.18;79.43;102747.88;4916909;29;1070271;-74
2022/08/09 01:04:20;;;;;;;7.20;2.63;;;;;;;17.20;79.53;102745.81;4937155;29;20085;-74
2022/08/09 01:07:03;;;;;;;5.85;2.60;;;;;;;17.15;79.83;102747.38;4955433;29;20050;-74
2022/08/09 01:09:36;;;;;;;11.13;2.85;;;;;;;17.13;79.87;102753.00;4935464;29;20038;-74
2022/08/09 01:12:23;;;;;;;6.22;2.92;;;;;;;17.08;80.07;102747.25;4936462;29;20035;-74
2022/08/09 01:14:54;;;;;;;5.68;2.83;;;;;;;17.09;80.33;102746.22;4936543;29;20039;-74
2022/08/09 01:17:37;;;;;;;4.53;2.42;;;;;;;17.07;80.25;102748.28;4943889;29;20069;-74
2022/08/09 01:20:16;;;;;;;5.22;2.83;;;;;;;17.05;80.44;102744.88;4937007;29;20466;-74
2022/08/09 01:22:54;;;;;;;7.13;2.42;;;;;;;17.03;80.56;102736.88;4936716;29;20050;-74
2022/08/09 01:25:33;;;;;;;5.78;2.58;;;;;;;17.02;80.98;102746.09;4937171;29;20386;-74
2022/08/09 01:28:00;;;;;;;7.65;2.88;;;;;;;17.01;81.12;102743.53;4951423;28;20161;-74
2022/08/09 01:30:26;;;;;;;7.45;2.92;;;;;;;17.02;81.07;102745.25;4936012;29;20431;-74
2022/08/09 01:32:53;;;;;;;5.85;3.00;;;;;;;17.00;81.28;102742.69;4935199;29;20046;-75
2022/08/09 01:35:37;;;;;;;5.67;2.90;;;;;;;17.00;81.12;102747.28;4936122;29;20038;-74
2022/08/09 01:38:06;;;;;;;5.70;3.13;;;;;;;17.00;81.23;102745.41;4935234;29;20101;-74
2022/08/09 01:40:32;;;;;;;9.32;3.17;;;;;;;16.94;81.32;102753.44;4932251;29;20115;-74
2022/08/09 01:42:58;;;;;;;5.75;2.80;;;;;;;16.91;81.59;102749.22;4930856;29;20093;-74
2022/08/09 01:45:23;;;;;;;6.00;3.22;;;;;;;16.87;81.67;102745.97;4936472;29;20031;-74
2022/08/09 01:47:49;;;;;;;8.18;2.95;;;;;;;16.89;81.79;102745.81;4934741;29;20365;-73
2022/08/09 01:50:15;;;;;;;5.15;3.10;;;;;;;16.85;81.79;102748.06;4950472;29;20122;-74
2022/08/09 01:52:41;;;;;;;6.63;3.05;;;;;;;16.83;81.92;102741.94;4936005;29;20541;-73
2022/08/09 01:55:08;;;;;;;8.23;3.03;;;;;;;16.80;82.17;102744.19;4935454;29;20166;-75
2022/08/09 01:57:39;;;;;;;6.70;3.28;;;;;;;16.75;82.47;102750.09;4935224;29;20439;-75
2022/08/09 02:00:07;;;;;;;8.18;3.45;;;;;;;16.73;82.70;102757.59;4928600;29;20050;-74
2022/08/09 02:02:35;;;;;;;6.90;3.53;;;;;;;16.73;82.71;102762.19;4952572;29;20055;-74
2022/08/09 02:05:04;;;;;;;5.38;3.17;;;;;;;16.72;82.83;102761.34;4956180;28;20035;-74
2022/08/09 02:07:31;;;;;;;11.18;3.78;;;;;;;16.72;83.10;102760.47;4935384;29;20044;-74
2022/08/09 02:09:59;;;;;;;6.95;3.30;;;;;;;16.68;83.41;102754.53;4931468;29;20023;-74
2022/08/09 02:12:25;;;;;;;7.53;3.25;;;;;;;16.69;83.55;102745.34;4918831;29;20039;-75
2022/08/09 02:14:51;;;;;;;4.70;3.20;;;;;;;16.68;83.40;102751.81;4919830;29;20039;-74
2022/08/09 02:17:20;;;;;;;4.82;3.05;;;;;;;16.69;83.46;102745.34;4935921;29;20399;-74
2022/08/09 02:19:45;;;;;;;8.48;3.50;;;;;;;16.67;83.62;102747.41;4940241;28;20030;-74
2022/08/09 02:22:19;;;;;;;11.30;3.70;;;;;;;16.65;83.72;102746.75;4955850;28;20109;-74
2022/08/09 02:24:47;;;;;;;7.47;3.42;;;;;;;16.60;84.03;102736.38;4935154;29;20031;-74
2022/08/09 02:27:15;;;;;;;8.23;3.72;;;;;;;16.57;84.26;102735.91;4920066;29;20079;-74
2022/08/09 02:29:45;;;;;;;7.88;3.78;;;;;;;16.59;84.16;102740.13;4949476;29;20035;-74
2022/08/09 02:32:11;;;;;;;5.95;3.40;;;;;;;16.56;84.40;102740.50;4933717;29;20030;-74
2022/08/09 02:34:37;;;;;;;14.40;4.53;;;;;;;16.50;84.79;102729.47;4934730;29;20037;-74
2022/08/09 02:37:05;;;;;;;6.45;3.60;;;;;;;16.48;85.07;102736.94;4928864;29;20027;-74
2022/08/09 02:39:33;;;;;;;;;;;;;;;16.44;85.23;102733.72;4953044;29;20419;-74
2022/08/09 02:42:02;;;;;;;10.18;3.80;;;;;;;16.40;85.43;102735.09;4934448;29;19914;-73
2022/08/09 02:44:34;;;;;;;14.07;4.10;;;;;;;16.36;85.62;102729.16;4935873;29;20035;-74
2022/08/09 02:47:03;;;;;;;7.15;3.92;;;;;;;16.33;85.87;102726.81;4935177;29;20439;-74
2022/08/09 02:49:28;;;;;;;7.97;4.20;;;;;;;16.36;86.06;102728.31;4933551;29;20108;-73
2022/08/09 02:51:56;;;;;;;10.77;4.20;;;;;;;16.35;85.91;102723.91;4934014;29;20512;-74
2022/08/09 02:54:22;;;;;;;9.38;3.97;;;;;;;16.31;86.35;102723.41;4951766;29;20032;-74
2022/08/09 02:56:50;;;;;;;8.27;4.20;;;;;;;16.23;86.73;102724.28;4934291;29;20102;-74
2022/08/09 02:59:16;;;;;;;9.05;3.90;;;;;;;16.27;86.75;102719.31;4935563;29;20156;-75
2022/08/09 03:01:42;;;;;;;6.10;4.50;;;;;;;16.28;86.65;102725.63;4934700;29;20164;-74
2022/08/09 03:04:09;;;;;;;10.27;3.70;;;;;;;16.25;86.83;102721.41;4933497;29;20034;-73
2022/08/09 03:06:35;;;;;;;4.45;4.03;;;;;;;16.21;86.98;102718.16;4950205;29;20067;-74
2022/08/09 03:09:02;;;;;;;8.90;4.10;;;;;;;16.23;87.02;102723.44;4951010;28;20039;-74
2022/08/09 03:11:29;;;;;;;10.38;4.70;;;;;;;16.21;86.95;102720.03;4935139;29;20038;-75
2022/08/09 03:13:54;;;;;;;11.52;4.65;;;;;;;16.20;87.07;102723.78;4935065;29;20123;-73
2022/08/09 03:16:21;;;;;;;12.73;4.65;;;;;;;16.24;87.18;102725.09;4928918;29;20122;-74
2022/08/09 03:18:46;;;;;;;11.88;4.38;;;;;;;16.21;86.95;102722.75;4938056;29;20031;-75
2022/08/09 03:21:14;;;;;;;7.50;4.30;;;;;;;16.25;86.91;102721.41;4965832;29;20024;-75
2022/08/09 03:23:42;;;;;;;;;;;;;;;16.19;87.16;102722.94;4934645;29;20442;-74
2022/08/09 03:26:08;;;;;;;6.95;4.13;;;;;;;16.18;87.22;102731.25;4937771;29;19922;-73
2022/08/09 03:28:35;;;;;;;6.55;4.18;;;;;;;16.19;87.64;102730.22;4953875;29;20431;-74
2022/08/09 03:31:00;;;;;;;7.53;4.60;;;;;;;16.20;87.26;102723.78;4949887;28;20054;-73
2022/08/09 03:33:26;;;;;;;12.50;4.45;;;;;;;16.22;87.26;102729.91;4951383;29;20058;-75
2022/08/09 03:35:52;;;;;;;6.78;4.05;;;;;;;16.22;87.36;102732.63;4918714;29;20046;-74
2022/08/09 03:38:17;;;;;;;8.38;4.53;;;;;;;16.21;87.36;102737.16;4930350;29;20467;-74
2022/08/09 03:40:42;;;;;;;12.80;4.85;;;;;;;16.16;87.59;102731.41;4951003;29;20027;-75
2022/08/09 03:43:08;;;;;;;9.75;5.07;;;;;;;16.17;87.79;102735.84;4952653;29;20039;-73
2022/08/09 03:45:35;;;;;;;9.15;4.43;;;;;;;16.16;87.93;102738.72;4941349;29;20039;-74
2022/08/09 03:48:01;;;;;;;8.77;4.50;;;;;;;16.13;88.25;102734.47;4952641;28;20040;-74
2022/08/09 03:50:27;;;;;;;8.50;5.22;;;;;;;16.12;88.29;102737.38;4950098;29;20039;-75
2022/08/09 03:52:55;;;;;;;10.25;5.32;;;;;;;16.07;88.53;102737.88;4951732;29;20086;-74
2022/08/09 03:55:21;;;;;;;10.68;4.85;;;;;;;16.04;88.65;102742.84;4932993;29;20042;-73
2022/08/09 03:57:47;;;;;;;10.05;5.05;;;;;;;16.06;88.66;102754.34;4930567;29;20043;-74
2022/08/09 04:00:13;;;;;;;7.80;4.68;;;;;;;16.04;88.73;102750.97;4950709;29;20023;-73
2022/08/09 04:02:41;;;;;;;9.52;5.05;;;;;;;16.02;88.85;102751.97;4914004;29;20515;-75
2022/08/09 04:05:08;;;;;;;12.65;5.15;;;;;;;16.05;89.08;102758.09;4929654;29;20030;-73
2022/08/09 04:07:33;;;;;;;11.68;5.22;;;;;;;16.05;89.19;102758.09;4935763;29;20103;-74
2022/08/09 04:09:58;;;;;;;12.73;5.32;;;;;;;16.00;89.28;102759.44;4935602;29;20036;-73
2022/08/09 04:12:41;;;;;;;11.82;5.13;;;;;;;16.01;89.53;102768.47;4934186;29;20471;-72
2022/08/09 04:15:07;;;;;;;9.98;5.05;;;;;;;15.98;89.55;102769.66;4935108;29;20078;-73
2022/08/09 04:17:32;;;;;;;8.82;5.70;;;;;;;16.06;89.73;102770.63;4935590;29;20444;-74
2022/08/09 04:19:58;;;;;;;10.18;6.43;;;;;;;16.00;89.71;102773.03;4935290;29;20032;-73
2022/08/09 04:22:23;;;;;;;7.43;5.40;;;;;;;16.04;89.80;102772.72;4934947;29;20123;-74
2022/08/09 04:24:48;;;;;;;11.63;6.65;;;;;;;16.04;89.60;102770.00;4936224;29;20028;-74
2022/08/09 04:27:14;;;;;;;14.43;6.40;;;;;;;16.05;89.69;102777.94;4935425;29;20098;-73
2022/08/09 04:29:39;;;;;;;11.50;6.03;;;;;;;15.99;89.71;102775.94;4935522;29;20119;-74
2022/08/09 04:32:05;;;;;;;9.85;6.40;;;;;;;15.97;90.09;102783.38;4934989;29;20059;-73
2022/08/09 04:34:32;;;;;;;14.02;6.72;;;;;;;15.94;90.24;102772.88;4934500;29;20036;-72
2022/08/09 04:36:57;;;;;;;11.43;6.65;;;;;;;15.95;90.31;102783.53;4934403;29;20134;-73
2022/08/09 04:39:23;;;;;;;13.60;6.00;;;;;;;15.99;90.49;102787.63;4934967;29;20059;-74
2022/08/09 04:41:48;;;;;;;12.93;6.47;;;;;;;16.00;90.26;102781.16;4934639;29;20034;-76
2022/08/09 04:44:13;;;;;;;11.20;5.88;;;;;;;16.01;90.21;102780.16;4917862;29;20032;-73
2022/08/09 04:46:39;;;;;;;13.63;6.93;;;;;;;16.05;90.34;102782.53;4936105;29;20118;-73
2022/08/09 04:49:04;;;;;;;9.07;6.25;;;;;;;16.08;89.87;102784.91;4939238;29;20030;-74
2022/08/09 04:51:30;;;;;;;9.95;6.03;;;;;;;16.08;89.41;102779.47;4934727;29;20031;-74
2022/08/09 04:53:55;;;;;;;16.60;6.10;;;;;;;16.10;89.49;102778.28;4933885;29;20043;-73
2022/08/09 04:56:20;;;;;;;9.27;6.15;;;;;;;16.18;89.42;102788.28;4935445;29;20035;-73
2022/08/09 04:58:46;;;;;;;11.63;6.20;;;;;;;16.17;89.32;102779.31;4934279;29;20337;-73
2022/08/09 05:01:11;;;;;;;12.98;6.00;;;;;;;16.27;89.20;102784.53;4933608;29;20078;-74
2022/08/09 05:03:36;;;;;;;9.10;5.68;;;;;;;16.31;88.73;102783.19;4945770;29;20114;-73
2022/08/09 05:06:02;;;;;;;9.45;5.88;;;;;;;16.37;89.04;102785.19;4946229;28;20038;-73
2022/08/09 05:08:27;;;;;;;7.85;5.50;;;;;;;16.41;88.91;102783.84;4951169;29;20031;-74
2022/08/09 05:10:53;;;;;;;15.73;5.78;;;;;;;16.51;88.57;102785.50;4946146;29;20447;-74
2022/08/09 05:13:18;;;;;;;9.68;5.35;;;;;;;16.59;88.18;102782.78;4952869;28;20058;-74
2022/08/09 05:15:43;;;;;;;9.00;5.45;;;;;;;16.71;87.47;102794.97;4951516;28;20038;-74
2022/08/09 05:18:09;;;;;;;12.60;5.40;;;;;;;16.78;87.09;102785.13;4953293;29;20023;-74
2022/08/09 05:20:34;;;;;;;9.35;4.95;;;;;;;16.85;86.80;102786.13;4952125;29;20360;-74
2022/08/09 05:22:59;;;;;;;14.75;5.47;;;;;;;16.93;86.60;102787.09;4949395;28;20058;-74
2022/08/09 05:25:25;;;;;;;9.82;5.47;;;;;;;17.00;85.96;102788.09;4954078;28;20443;-74
2022/08/09 05:27:50;;;;;;;9.85;5.82;;;;;;;17.05;85.50;102788.41;4955221;28;20463;-74
2022/08/09 05:30:16;;;;;;;9.07;5.20;;;;;;;17.11;85.05;102787.69;4953417;28;20074;-74
2022/08/09 05:32:43;;;;;;;7.93;4.60;;;;;;;17.17;85.15;102784.28;4952629;29;20168;-74
2022/08/09 05:35:08;;;;;;;12.30;5.70;;;;;;;17.28;84.63;102783.03;4953851;28;20027;-75
2022/08/09 05:37:33;;;;;;;9.07;5.20;;;;;;;17.37;84.09;102789.25;4953909;28;20375;-75
2022/08/09 05:39:59;;;;;;;12.82;4.95;;;;;;;17.43;83.34;102800.28;4953843;28;20023;-74
2022/08/09 05:42:24;;;;;;;9.30;4.40;;;;;;;17.50;83.65;102797.69;4955094;28;20435;-75
2022/08/09 05:44:51;;;;;;;7.90;4.95;;;;;;;17.65;82.82;102805.94;4952239;29;20031;-74
2022/08/09 05:47:18;;;;;;;12.65;4.95;;;;;;;17.76;82.41;102806.34;4953252;29;20030;-76
2022/08/09 05:49:43;;;;;;;8.55;4.60;;;;;;;17.88;81.62;102806.81;4951709;29;20510;-74
2022/08/09 05:52:08;;;;;;;8.13;4.15;;;;;;;18.00;80.87;102812.66;4951997;29;20036;-75
2022/08/09 05:54:34;;;;;;;10.32;4.40;;;;;;;18.11;80.39;102817.66;4953416;29;20027;-75
2022/08/09 05:56:59;;;;;;;13.98;5.10;;;;;;;18.28;79.75;102820.25;4952424;28;20054;-75
2022/08/09 05:59:25;;;;;;;6.78;4.50;;;;;;;18.59;77.78;102820.94;4954115;29;20043;-74
2022/08/09 06:01:50;;;;;;;9.73;4.18;;;;;;;19.11;77.92;102821.88;4954233;29;20054;-75
2022/08/09 06:04:15;;;;;;;10.20;4.30;;;;;;;19.85;74.15;102818.09;4955960;29;20249;-74
2022/08/09 06:06:41;;;;;;;8.65;3.63;;;;;;;20.66;71.65;102824.03;4952668;28;20023;-75
2022/08/09 06:09:06;;;;;;;7.45;4.05;;;;;;;21.84;66.31;102837.59;4953282;29;20550;-74
2022/08/09 06:11:32;;;;;;;10.45;3.53;;;;;;;22.80;60.93;102837.13;4956518;29;20386;-74
2022/08/09 06:13:58;;;;;;;7.65;3.25;;;;;;;23.51;59.89;102838.13;4953585;29;20430;-74
2022/08/09 06:16:23;;;;;;;9.65;3.22;;;;;;;24.59;56.57;102846.22;4935348;29;20110;-74
2022/08/09 06:18:49;;;;;;;5.95;2.97;;;;;;;25.23;54.56;102846.78;4934701;29;20058;-74
2022/08/09 06:21:15;;;;;;;8.82;3.00;;;;;;;25.96;50.63;102840.25;4952774;28;20501;-74
2022/08/09 06:23:40;;;;;;;9.60;2.80;;;;;;;26.37;49.51;102846.75;4935689;29;20133;-74
2022/08/09 06:26:06;;;;;;;7.40;2.53;;;;;;;26.96;47.90;102848.66;4950640;28;20294;-75
2022/08/09 06:28:31;;;;;;;7.43;2.80;;;;;;;27.04;47.42;102856.56;4952299;28;20066;-74
2022/08/09 06:30:56;;;;;;;9.30;2.08;;;;;;;27.85;44.67;102856.53;4963373;28;20023;-74
2022/08/09 06:33:22;;;;;;;6.60;2.50;;;;;;;27.95;43.93;102854.78;4952838;29;20113;-75
2022/08/09 06:35:47;;;;;;;9.07;2.90;;;;;;;28.14;42.98;102854.53;4951083;28;20027;-75
2022/08/09 06:38:12;;;;;;;6.53;2.45;;;;;;;28.35;42.67;102862.06;4932473;29;20035;-75
2022/08/09 06:40:38;;;;;;;6.35;1.98;;;;;;;28.49;42.37;102851.53;4952709;29;20023;-75
2022/08/09 06:43:03;;;;;;;4.90;2.00;;;;;;;29.13;40.31;102855.75;4935301;29;20093;-76
2022/08/09 06:45:29;;;;;;;5.95;1.80;;;;;;;29.40;39.24;102867.69;4952795;29;20062;-74
2022/08/09 06:47:54;;;;;;;6.28;2.50;;;;;;;29.45;38.93;102864.97;4953594;29;20039;-73
2022/08/09 06:50:19;;;;;;;6.50;2.50;;;;;;;29.18;39.44;102869.66;4952847;29;20375;-75
2022/08/09 06:52:45;;;;;;;5.60;2.22;;;;;;;28.98;40.59;102853.56;4952759;29;20404;-74
2022/08/09 06:55:12;;;;;;;5.95;2.13;;;;;;;29.32;39.92;102863.44;4952768;29;20175;-74
2022/08/09 06:57:37;;;;;;;7.28;2.58;;;;;;;29.11;39.68;102864.31;4952624;29;20035;-74
2022/08/09 07:00:03;;;;;;;8.23;2.38;;;;;;;29.50;39.18;102870.59;4952492;29;20086;-72
2022/08/09 07:02:29;;;;;;;6.78;2.05;;;;;;;29.87;37.24;102872.66;4955503;29;20074;-75
2022/08/09 07:04:54;;;;;;;5.33;2.13;;;;;;;29.59;38.52;102864.56;4938436;29;20027;-74
2022/08/09 07:07:19;;;;;;;6.45;1.80;;;;;;;29.49;39.47;102860.59;4956417;29;20329;-75
2022/08/09 07:09:45;;;;;;;10.27;2.38;;;;;;;29.80;37.51;102872.00;4956984;29;20528;-74
2022/08/09 07:12:10;;;;;;;6.00;2.20;;;;;;;30.28;36.39;102873.03;4956321;29;20047;-75
2022/08/09 07:14:36;;;;;;;7.93;2.00;;;;;;;30.53;36.01;102875.13;4954086;29;20027;-75
2022/08/09 07:17:01;;;;;;;8.97;2.50;;;;;;;30.34;36.79;102877.50;4954261;29;20079;-75
2022/08/09 07:19:27;;;;;;;9.23;2.40;;;;;;;30.29;36.99;102879.41;4953113;29;20098;-74
2022/08/09 07:21:52;;;;;;;8.00;2.80;;;;;;;30.53;36.53;102875.13;4954440;29;20070;-74
2022/08/09 07:24:17;;;;;;;7.77;2.67;;;;;;;30.63;35.96;102877.16;4936788;29;20027;-74
2022/08/09 07:26:43;;;;;;;11.70;3.00;;;;;;;30.30;35.88;102867.19;4956088;29;20106;-75
2022/08/09 07:29:08;;;;;;;6.97;2.10;;;;;;;30.14;36.40;102860.66;4954003;29;20541;-74
2022/08/09 07:31:33;;;;;;;11.07;2.93;;;;;;;30.34;36.20;102852.50;4953793;29;20039;-74
2022/08/09 07:33:59;;;;;;;7.20;2.93;;;;;;;29.85;36.86;102860.97;4955619;29;20111;-75
2022/08/09 07:36:24;;;;;;;7.13;2.70;;;;;;;29.34;37.73;102849.31;4952670;29;20051;-75
2022/08/09 07:38:49;;;;;;;13.20;2.40;;;;;;;29.85;37.72;102854.56;4954279;28;20027;-75
2022/08/09 07:41:15;;;;;;;16.83;3.63;;;;;;;30.04;36.56;102855.00;4956144;29;20445;-74
2022/08/09 07:43:40;;;;;;;14.83;3.20;;;;;;;29.97;36.54;102855.25;4956256;29;20498;-75
2022/08/09 07:46:07;;;;;;;5.45;2.30;;;;;;;30.12;37.07;102858.16;4957086;29;20027;-75
2022/08/09 07:48:33;;;;;;;9.88;2.67;;;;;;;30.29;36.24;102857.19;4957637;29;20158;-75
2022/08/09 07:50:59;;;;;;;8.17;3.10;;;;;;;30.52;36.05;102867.09;4956921;29;20108;-74
2022/08/09 07:53:25;;;;;;;7.25;2.70;;;;;;;30.51;36.17;102857.06;4955810;29;20038;-73
2022/08/09 07:55:50;;;;;;;10.23;2.83;;;;;;;30.94;35.43;102855.06;4955640;29;20355;-74
2022/08/09 07:58:15;;;;;;;14.23;3.67;;;;;;;31.47;33.96;102861.44;4958418;29;20015;-76
2022/08/09 08:00:41;;;;;;;8.40;3.67;;;;;;;30.97;34.44;102858.16;4957232;29;20039;-74
2022/08/09 08:03:07;;;;;;;8.27;3.20;;;;;;;30.40;35.62;102858.94;4958410;29;20042;-74
2022/08/09 08:05:33;;;;;;;10.70;2.80;;;;;;;30.41;35.95;102860.59;4957713;29;20031;-75
2022/08/09 08:07:58;;;;;;;13.23;2.97;;;;;;;30.56;35.41;102862.66;4956706;29;20109;-74
2022/08/09 08:10:23;;;;;;;8.37;2.77;;;;;;;31.38;33.72;102879.75;4955450;29;20114;-74
2022/08/09 08:12:49;;;;;;;9.13;2.57;;;;;;;31.89;33.41;102877.91;4955723;29;20082;-74
2022/08/09 08:15:17;;;;;;;10.07;3.30;;;;;;;31.89;32.87;102882.66;4957237;29;20111;-75
2022/08/09 08:17:44;;;;;;;6.70;2.95;;;;;;;31.95;33.45;102877.94;4956346;29;20151;-74
2022/08/09 08:20:10;;;;;;;8.55;3.17;;;;;;;32.00;33.58;102881.56;4955837;29;20034;-75
2022/08/09 08:22:36;;;;;;;13.73;3.42;;;;;;;32.18;32.76;102870.94;4938826;29;20387;-75
2022/08/09 08:25:01;;;;;;;18.93;3.10;;;;;;;32.12;32.68;102870.97;4955158;29;20038;-73
2022/08/09 08:27:27;;;;;;;8.33;2.13;;;;;;;32.56;32.94;102862.00;4955814;29;20027;-73
2022/08/09 08:29:53;;;;;;;8.40;3.47;;;;;;;33.20;31.04;102865.13;4955672;29;20031;-75
2022/08/09 08:32:19;;;;;;;12.57;3.33;;;;;;;33.31;30.84;102861.19;4956526;29;20035;-74
2022/08/09 08:34:44;;;;;;;;;;;;;;;33.48;29.94;102865.53;4956760;29;20034;-73
2022/08/09 08:37:10;;;;;;;5.90;2.90;;;;;;;33.39;30.65;102863.38;4955361;29;19910;-74
2022/08/09 08:39:35;;;;;;;8.10;2.53;;;;;;;33.07;30.54;102860.19;4956532;29;20027;-75
2022/08/09 08:42:01;;;;;;;8.93;2.27;;;;;;;33.03;30.31;102857.13;4955202;29;20033;-74
2022/08/09 08:44:27;;;;;;;5.33;2.07;;;;;;;33.36;30.53;102858.38;4955608;29;20101;-75
2022/08/09 08:46:53;;;;;;;8.95;2.35;;;;;;;33.42;29.68;102861.97;4955371;29;20443;-74
2022/08/09 08:49:18;;;;;;;9.53;2.50;;;;;;;33.87;29.34;102868.38;4938525;29;20023;-73
2022/08/09 08:51:44;;;;;;;13.67;2.27;;;;;;;33.25;30.61;102856.75;4939637;29;20046;-74
2022/08/09 08:54:10;;;;;;;8.73;2.13;;;;;;;33.49;29.53;102872.78;4940086;29;20134;-74
2022/08/09 08:56:36;;;;;;;;;;;;;;;33.43;29.85;102874.78;4940757;29;20378;-75
2022/08/09 08:59:08;;;;;;;9.40;2.22;;;;;;;33.00;30.58;102875.25;4957466;29;19929;-74
2022/08/09 09:01:34;;;;;;;10.15;2.33;;;;;;;32.87;31.36;102867.50;4955930;29;20445;-75
2022/08/09 09:04:05;;;;;;;11.50;2.67;;;;;;;33.12;30.69;102874.09;4955704;29;20118;-73
2022/08/09 09:06:30;;;;;;;5.68;2.08;;;;;;;33.72;29.18;102871.28;4938661;29;20074;-73
2022/08/09 09:08:57;;;;;;;9.13;2.60;;;;;;;33.70;29.26;102876.31;4956766;29;20051;-75
2022/08/09 09:11:22;;;;;;;7.90;2.08;;;;;;;33.49;29.73;102873.63;4937904;29;20118;-75
2022/08/09 09:13:49;;;;;;;8.77;2.17;;;;;;;33.74;29.24;102886.63;4937948;29;20050;-74
2022/08/09 09:16:15;;;;;;;10.32;2.30;;;;;;;34.06;28.84;102874.09;4954717;29;20397;-74
2022/08/09 09:18:40;;;;;;;8.07;2.03;;;;;;;33.69;28.93;102869.91;4955108;29;20081;-75
2022/08/09 09:21:06;;;;;;;6.73;1.70;;;;;;;33.64;27.54;102867.13;4955273;29;20066;-75
2022/08/09 09:23:39;;;;;;;;;;;;;;;33.39;26.79;102874.53;4957744;29;20118;-74
2022/08/09 09:26:05;;;;;;;8.90;1.40;;;;;;;33.02;27.71;102872.22;4955938;29;19972;-75
2022/08/09 09:28:34;;;;;;;3.03;1.33;;;;;;;32.93;28.32;102868.31;4955047;29;20028;-74
2022/08/09 09:31:00;;;;;;;5.20;1.42;;;;;;;32.14;29.21;102879.88;4954658;29;20245;-74
2022/08/09 09:33:33;;;;;;;6.80;1.87;;;;;;;31.60;30.53;102877.59;4955349;29;20497;-73
2022/08/09 09:36:04;;;;;;;8.55;1.98;;;;;;;31.45;30.77;102872.81;4954637;29;20039;-74
2022/08/09 09:38:48;;;;;;;9.88;1.60;;;;;;;32.12;30.00;102873.78;4954056;29;20028;-74
2022/08/09 09:41:22;;;;;;;6.22;1.80;;;;;;;32.19;29.31;102872.63;4954346;29;20031;-74
2022/08/09 09:43:49;;;;;;;8.88;1.98;;;;;;;32.35;29.94;102882.66;4954847;29;20065;-75
2022/08/09 09:46:14;;;;;;;9.95;1.90;;;;;;;32.57;29.18;102877.63;4954076;29;20039;-74
2022/08/09 09:48:54;;;;;;;7.53;1.87;;;;;;;33.03;28.12;102892.56;4956410;29;20030;-76
2022/08/09 09:51:20;;;;;;;8.18;1.40;;;;;;;33.17;28.42;102890.81;4954672;29;20050;-76
2022/08/09 09:53:45;;;;;;;8.73;1.57;;;;;;;32.56;28.52;102883.47;4938737;29;20463;-75
2022/08/09 09:56:10;;;;;;;6.83;1.30;;;;;;;32.53;28.89;102884.88;4956995;29;20118;-75
2022/08/09 09:58:47;;;;;;;8.77;1.90;;;;;;;32.14;28.96;102881.81;4955930;29;20027;-75
2022/08/09 10:01:19;;;;;;;;;;;;;;;32.06;29.85;102888.78;4934911;29;20055;-75
2022/08/09 10:03:46;;;;;;;7.85;1.63;;;;;;;32.30;28.73;102874.28;4936050;29;20340;-74
2022/08/09 10:06:12;;;;;;;5.07;1.20;;;;;;;32.29;28.03;102881.00;4936164;29;20039;-74
2022/08/09 10:08:37;;;;;;;3.23;1.30;;;;;;;31.74;28.55;102875.09;4935572;29;20103;-74
2022/08/09 10:11:26;;;;;;;6.30;1.43;;;;;;;31.91;28.72;102866.47;4936759;29;20451;-74
2022/08/09 10:13:52;;;;;;;6.22;1.50;;;;;;;32.24;28.60;102864.28;4935890;29;20031;-73
2022/08/09 10:16:32;;;;;;;7.20;1.63;;;;;;;32.34;28.69;102862.31;4936194;29;20086;-74
2022/08/09 10:19:00;;;;;;;8.05;2.00;;;;;;;31.91;29.82;102860.91;4935797;29;20031;-74
2022/08/09 10:21:26;;;;;;;6.50;1.63;;;;;;;32.28;29.51;102855.09;4934915;29;20031;-74
2022/08/09 10:23:53;;;;;;;8.27;1.77;;;;;;;32.19;29.26;102851.19;4934461;29;20043;-74
2022/08/09 10:26:20;;;;;;;3.58;1.38;;;;;;;32.65;27.83;102856.72;4935714;29;20087;-74
2022/08/09 10:28:46;;;;;;;10.50;1.58;;;;;;;32.90;27.84;102855.75;4935192;29;20024;-74
2022/08/09 10:31:12;;;;;;;9.00;1.70;;;;;;;33.34;27.09;102857.81;4934382;29;20452;-74
2022/08/09 10:33:38;;;;;;;8.98;1.42;;;;;;;33.45;26.12;102851.03;4935510;29;20391;-75
2022/08/09 10:36:05;;;;;;;5.93;1.30;;;;;;;33.21;27.65;102858.44;4934481;29;20123;-75
2022/08/09 10:38:30;;;;;;;2.78;1.20;;;;;;;33.26;26.24;102858.44;4935239;29;20031;-74
2022/08/09 10:40:56;;;;;;;4.70;1.43;;;;;;;33.30;26.65;102856.72;4933117;29;20345;-74
2022/08/09 10:43:22;;;;;;;6.47;1.50;;;;;;;33.45;26.37;102855.78;4936092;29;20031;-75
2022/08/09 10:45:48;;;;;;;4.30;1.10;;;;;;;33.10;26.59;102851.22;4936391;29;20031;-74
2022/08/09 10:48:23;;;;;;;7.93;1.47;;;;;;;33.22;25.70;102854.53;4935970;29;20463;-75
2022/08/09 10:51:13;;;;;;;3.90;1.27;;;;;;;33.53;26.12;102857.13;4917082;29;20024;-74
2022/08/09 10:53:56;;;;;;;3.13;1.30;;;;;;;33.35;26.34;102853.88;4934992;29;20035;-75
2022/08/09 10:56:27;;;;;;;4.63;1.05;;;;;;;33.66;25.12;102853.72;4934109;29;20031;-75
2022/08/09 10:58:55;;;;;;;4.75;1.20;;;;;;;33.81;25.51;102852.75;4934096;29;20028;-75
2022/08/09 11:01:34;;;;;;;4.57;1.02;;;;;;;33.57;25.13;102855.44;4916922;29;20048;-74
2022/08/09 11:04:11;;;;;;;3.55;1.05;;;;;;;33.79;24.83;102850.28;4934103;29;20084;-74
2022/08/09 11:06:38;;;;;;;4.80;1.08;;;;;;;33.43;24.30;102850.50;4934597;29;20059;-76
2022/08/09 11:09:04;;;;;;;7.50;1.38;;;;;;;33.12;25.86;102846.22;4933680;29;20049;-75
2022/08/09 11:11:58;;;;;;;2.33;1.08;;;;;;;33.14;26.35;102844.81;4932605;29;20064;-74
2022/08/09 11:14:36;;;;;;;2.65;0.95;;;;;;;32.69;25.99;102854.19;4936522;29;20055;-76
2022/08/09 11:17:03;;;;;;;6.05;1.40;;;;;;;32.03;25.79;102842.00;4937947;29;20031;-73
2022/08/09 11:19:56;;;;;;;3.05;1.13;;;;;;;31.59;26.79;102850.84;4937664;29;20428;-75
2022/08/09 11:22:42;;;;;;;6.10;1.25;;;;;;;31.27;26.79;102853.81;4938130;29;20368;-74
2022/08/09 11:25:14;;;;;;;3.35;1.20;;;;;;;30.85;27.36;102846.44;4938415;29;20032;-75